Time;durP1;ratioP1;P1;durP2;ratioP2;P2;SDS_P1;SDS_P2;PMS_P1;PMS_P2;Temp;Humidity;BMP_temperature;BMP_pressure;BME280_temperature;BME280_humidity;BME280_pressure;Samples;Min_cycle;Max_cycle;Signal;HPM_P1;HPM_P2
2021/10/21 00:01:18;;;;;;;4.68;1.20;;;23.40;39.80;;;;;;6224856;28;20048;-72
2021/10/21 00:04:19;;;;;;;4.68;1.17;;;23.40;39.90;;;;;;6227434;28;20077;-72
2021/10/21 00:07:20;;;;;;;1.77;1.33;;;23.40;39.70;;;;;;6223643;28;20034;-71
2021/10/21 00:10:21;;;;;;;2.55;1.38;;;23.50;39.70;;;;;;6210522;28;20117;-72
2021/10/21 00:13:23;;;;;;;1.45;1.10;;;23.40;39.40;;;;;;6223204;28;20030;-72
2021/10/21 00:16:24;;;;;;;1.67;1.10;;;23.50;39.50;;;;;;6228529;28;20053;-72
2021/10/21 00:19:26;;;;;;;3.45;1.27;;;23.50;39.40;;;;;;6225659;28;20044;-72
2021/10/21 00:22:27;;;;;;;1.98;0.95;;;23.50;39.40;;;;;;6223378;28;20036;-72
2021/10/21 00:25:28;;;;;;;1.30;1.00;;;23.50;39.40;;;;;;6222799;28;20459;-73
2021/10/21 00:28:29;;;;;;;3.58;1.13;;;23.60;39.40;;;;;;6223830;28;20037;-72
2021/10/21 00:31:29;;;;;;;1.85;1.10;;;23.50;39.30;;;;;;6219715;28;20052;-72
2021/10/21 00:34:30;;;;;;;1.70;1.00;;;23.50;39.10;;;;;;6222422;28;20030;-72
2021/10/21 00:37:31;;;;;;;3.53;1.08;;;23.60;39.20;;;;;;6223393;28;20383;-72
2021/10/21 00:40:32;;;;;;;1.63;1.00;;;23.60;39.30;;;;;;6222169;28;20057;-72
2021/10/21 00:43:38;;;;;;;1.45;1.05;;;23.60;39.20;;;;;;6222630;28;20061;-72
2021/10/21 00:46:39;;;;;;;4.00;1.10;;;23.60;39.00;;;;;;6222334;28;20018;-73
2021/10/21 00:49:40;;;;;;;3.15;1.02;;;23.60;38.90;;;;;;6238859;28;20141;-72
2021/10/21 00:52:41;;;;;;;0.80;0.70;;;23.70;38.90;;;;;;6223280;28;20034;-72
2021/10/21 00:55:42;;;;;;;2.13;1.15;;;23.60;38.90;;;;;;6222284;28;20040;-72
2021/10/21 00:58:44;;;;;;;1.13;1.00;;;23.50;38.90;;;;;;6222360;28;20115;-72
2021/10/21 01:01:45;;;;;;;3.45;1.08;;;23.50;38.90;;;;;;6215062;28;20052;-72
2021/10/21 01:04:46;;;;;;;2.10;1.20;;;23.50;39.00;;;;;;6223369;28;20034;-72
2021/10/21 01:07:48;;;;;;;2.33;1.10;;;23.50;39.10;;;;;;6221823;28;20049;-72
2021/10/21 01:10:50;;;;;;;1.10;0.90;;;23.50;39.20;;;;;;6237500;28;20054;-72
2021/10/21 01:13:51;;;;;;;1.45;0.80;;;23.40;39.20;;;;;;6221967;28;20113;-72
2021/10/21 01:16:52;;;;;;;1.50;1.10;;;23.40;39.20;;;;;;6222371;28;20113;-73
2021/10/21 01:19:54;;;;;;;1.15;1.05;;;23.40;39.20;;;;;;6218842;28;20045;-72
2021/10/21 01:22:55;;;;;;;2.35;0.95;;;23.40;39.20;;;;;;6222410;28;20053;-72
2021/10/21 01:25:56;;;;;;;1.13;1.00;;;23.40;39.30;;;;;;6221503;28;20107;-72
2021/10/21 01:28:57;;;;;;;4.85;1.17;;;23.40;39.30;;;;;;6221676;28;20034;-72
2021/10/21 01:32:00;;;;;;;1.25;1.15;;;23.40;39.30;;;;;;6224370;28;20111;-72
2021/10/21 01:35:04;;;;;;;1.85;1.13;;;23.40;39.40;;;;;;6205015;28;20037;-73
2021/10/21 01:38:05;;;;;;;1.10;0.90;;;23.40;39.40;;;;;;6220742;28;20042;-73
2021/10/21 01:41:06;;;;;;;0.88;0.85;;;23.30;39.50;;;;;;6219253;28;20087;-73
2021/10/21 01:44:07;;;;;;;2.83;0.93;;;23.40;39.70;;;;;;6224456;28;20475;-71
2021/10/21 01:47:08;;;;;;;1.48;0.80;;;23.30;40.10;;;;;;6236616;28;20037;-74
2021/10/21 01:50:09;;;;;;;0.93;0.60;;;23.20;40.70;;;;;;6219235;28;20127;-74
2021/10/21 01:53:11;;;;;;;0.90;0.80;;;23.00;41.50;;;;;;6222395;28;20367;-71
2021/10/21 01:56:12;;;;;;;2.17;1.10;;;22.80;42.20;;;;;;6221794;28;20064;-71
2021/10/21 01:59:13;;;;;;;1.38;0.80;;;22.60;42.70;;;;;;6236463;28;20037;-71
2021/10/21 02:02:14;;;;;;;1.15;1.05;;;22.60;43.00;;;;;;6219908;28;20411;-71
2021/10/21 02:05:16;;;;;;;4.05;0.80;;;22.60;43.20;;;;;;6237049;28;20061;-72
2021/10/21 02:08:17;;;;;;;0.93;0.85;;;22.60;43.30;;;;;;6237307;28;20080;-71
2021/10/21 02:11:19;;;;;;;0.80;0.80;;;22.60;43.30;;;;;;6222448;28;20038;-72
2021/10/21 02:14:20;;;;;;;3.42;0.80;;;22.60;43.20;;;;;;6226049;28;20044;-71
2021/10/21 02:17:22;;;;;;;1.90;1.02;;;22.70;43.10;;;;;;6222866;28;20030;-72
2021/10/21 02:20:23;;;;;;;1.83;0.90;;;22.70;43.00;;;;;;6214516;28;20061;-72
2021/10/21 02:23:24;;;;;;;3.42;0.90;;;22.80;42.80;;;;;;6221669;28;20030;-72
2021/10/21 02:26:25;;;;;;;1.42;0.80;;;22.90;42.60;;;;;;6220624;28;20574;-72
2021/10/21 02:29:26;;;;;;;1.63;0.82;;;22.90;42.40;;;;;;6237221;28;20069;-72
2021/10/21 02:32:27;;;;;;;0.95;0.77;;;22.90;42.40;;;;;;6223545;28;20038;-72
2021/10/21 02:35:28;;;;;;;1.98;1.00;;;22.90;42.30;;;;;;6220820;28;20038;-72
2021/10/21 02:38:29;;;;;;;1.05;0.75;;;22.90;42.20;;;;;;6220252;28;20057;-72
2021/10/21 02:41:30;;;;;;;0.70;0.65;;;23.00;42.30;;;;;;6221552;28;20041;-72
2021/10/21 02:44:31;;;;;;;1.02;0.70;;;23.00;42.30;;;;;;6221671;28;20061;-72
2021/10/21 02:47:32;;;;;;;1.13;0.90;;;23.00;42.30;;;;;;6221107;28;20030;-72
2021/10/21 02:50:33;;;;;;;1.00;0.90;;;23.00;42.30;;;;;;6237048;28;20459;-72
2021/10/21 02:53:34;;;;;;;0.73;0.73;;;23.00;42.30;;;;;;6220255;28;20052;-72
2021/10/21 02:56:35;;;;;;;3.70;1.00;;;23.00;42.40;;;;;;6236890;28;20034;-72
2021/10/21 02:59:36;;;;;;;1.42;0.90;;;23.10;42.60;;;;;;6220528;28;20057;-72
2021/10/21 03:02:37;;;;;;;1.38;0.80;;;23.00;42.70;;;;;;6223980;28;20037;-72
2021/10/21 03:05:38;;;;;;;2.22;0.98;;;23.10;42.80;;;;;;6219693;28;20095;-71
2021/10/21 03:08:39;;;;;;;0.82;0.68;;;23.10;42.80;;;;;;6219963;28;20108;-72
2021/10/21 03:11:40;;;;;;;1.38;0.63;;;23.00;42.90;;;;;;6224093;28;20462;-72
2021/10/21 03:14:40;;;;;;;3.13;0.80;;;23.00;43.10;;;;;;6225060;28;20042;-72
2021/10/21 03:17:42;;;;;;;2.03;0.70;;;23.00;43.50;;;;;;6224874;28;20534;-72
2021/10/21 03:20:43;;;;;;;1.15;0.80;;;23.00;43.70;;;;;;6223698;28;20038;-72
2021/10/21 03:23:43;;;;;;;6.57;1.00;;;22.90;44.20;;;;;;6224241;28;20439;-72
2021/10/21 03:26:44;;;;;;;1.92;1.00;;;22.80;45.20;;;;;;6225585;28;20344;-72
2021/10/21 03:29:45;;;;;;;1.60;0.80;;;22.70;46.00;;;;;;6239332;28;20485;-72
2021/10/21 03:32:46;;;;;;;3.55;1.30;;;22.50;46.50;;;;;;6225007;28;20128;-72
2021/10/21 03:35:47;;;;;;;1.27;0.80;;;22.40;47.40;;;;;;6224372;28;20060;-72
2021/10/21 03:38:48;;;;;;;2.70;1.30;;;22.20;48.10;;;;;;6230535;28;20057;-71
2021/10/21 03:41:49;;;;;;;1.63;1.10;;;22.00;49.20;;;;;;6219470;28;20041;-72
2021/10/21 03:44:54;;;;;;;1.10;0.82;;;21.80;50.40;;;;;;6224637;28;20037;-72
2021/10/21 03:47:54;;;;;;;1.80;0.93;;;21.60;51.30;;;;;;6224453;28;20038;-71
2021/10/21 03:50:55;;;;;;;2.97;0.95;;;21.30;52.00;;;;;;6224854;28;20029;-71
2021/10/21 03:53:56;;;;;;;2.83;1.20;;;21.20;52.40;;;;;;6224348;28;20355;-72
2021/10/21 03:56:57;;;;;;;4.78;1.08;;;21.10;52.60;;;;;;6223941;28;20084;-71
2021/10/21 03:59:58;;;;;;;2.33;0.90;;;21.00;53.20;;;;;;6224285;28;20073;-72
2021/10/21 04:02:59;;;;;;;1.60;1.17;;;20.80;53.30;;;;;;6223113;28;20030;-72
2021/10/21 04:06:00;;;;;;;1.23;1.10;;;20.70;53.40;;;;;;6239349;28;20046;-72
2021/10/21 04:09:01;;;;;;;2.67;1.48;;;20.70;54.00;;;;;;6223174;28;20042;-72
2021/10/21 04:12:02;;;;;;;3.67;1.08;;;20.60;54.20;;;;;;6223427;28;20043;-72
2021/10/21 04:15:03;;;;;;;1.50;0.98;;;20.60;54.80;;;;;;6222986;28;20030;-71
2021/10/21 04:18:04;;;;;;;4.65;1.13;;;20.50;55.10;;;;;;6222354;28;20125;-72
2021/10/21 04:21:05;;;;;;;5.65;1.30;;;20.50;55.30;;;;;;6218165;28;20039;-72
2021/10/21 04:24:06;;;;;;;1.70;1.10;;;20.40;55.70;;;;;;6222794;28;20037;-72
2021/10/21 04:27:07;;;;;;;2.88;1.08;;;20.40;56.30;;;;;;6222982;28;20360;-72
2021/10/21 04:30:08;;;;;;;2.25;0.90;;;20.30;56.70;;;;;;6238839;28;20048;-72
2021/10/21 04:33:09;;;;;;;1.10;1.00;;;20.20;56.80;;;;;;6241252;28;20034;-71
2021/10/21 04:36:10;;;;;;;2.10;1.40;;;20.20;57.40;;;;;;6239311;28;20374;-72
2021/10/21 04:39:11;;;;;;;1.25;1.00;;;20.10;57.60;;;;;;6222409;28;20042;-71
2021/10/21 04:42:13;;;;;;;1.45;0.98;;;20.00;58.00;;;;;;6222183;28;20038;-72
2021/10/21 04:45:13;;;;;;;1.38;1.05;;;19.90;58.40;;;;;;6238599;28;20067;-72
2021/10/21 04:48:15;;;;;;;1.38;0.90;;;19.80;58.70;;;;;;6222132;28;20041;-72
2021/10/21 04:51:16;;;;;;;10.15;1.20;;;19.80;58.70;;;;;;6223644;28;20533;-72
2021/10/21 04:54:17;;;;;;;1.23;1.00;;;19.80;58.80;;;;;;6223372;28;20033;-72
2021/10/21 04:57:18;;;;;;;1.98;0.80;;;19.80;59.30;;;;;;6222308;28;20076;-72
2021/10/21 05:00:20;;;;;;;1.08;0.95;;;19.70;59.30;;;;;;6237503;28;20332;-72
2021/10/21 05:03:21;;;;;;;1.42;1.05;;;19.70;59.60;;;;;;6202778;28;20034;-72
2021/10/21 05:06:22;;;;;;;4.60;1.05;;;19.70;59.80;;;;;;6222326;28;20045;-73
2021/10/21 05:09:23;;;;;;;3.92;1.30;;;19.80;59.90;;;;;;6223104;28;20363;-75
2021/10/21 05:12:23;;;;;;;3.13;1.02;;;19.80;60.10;;;;;;6231907;28;20395;-73
2021/10/21 05:15:25;;;;;;;4.85;1.42;;;19.80;60.00;;;;;;6203744;28;20120;-73
2021/10/21 05:18:26;;;;;;;2.08;1.20;;;19.80;60.00;;;;;;6223043;28;20467;-74
2021/10/21 05:21:27;;;;;;;4.28;1.38;;;19.80;60.10;;;;;;6221728;28;20099;-73
2021/10/21 05:24:28;;;;;;;2.10;1.33;;;19.80;60.60;;;;;;6202473;28;20079;-74
2021/10/21 05:27:28;;;;;;;2.40;1.73;;;19.80;60.80;;;;;;6230420;28;20378;-73
2021/10/21 05:30:30;;;;;;;2.25;1.27;;;19.80;60.80;;;;;;6221363;28;20038;-74
2021/10/21 05:33:35;;;;;;;6.88;1.33;;;19.90;61.00;;;;;;6207481;28;20045;-72
2021/10/21 05:36:36;;;;;;;7.18;1.38;;;19.90;60.90;;;;;;6223182;28;20367;-72
2021/10/21 05:39:37;;;;;;;2.15;1.10;;;19.90;60.90;;;;;;6220739;28;20042;-73
2021/10/21 05:42:38;;;;;;;2.35;1.45;;;19.90;61.00;;;;;;6205536;28;20046;-75
2021/10/21 05:45:38;;;;;;;4.35;1.92;;;19.90;61.20;;;;;;6222658;28;20120;-73
2021/10/21 05:48:39;;;;;;;2.40;1.63;;;19.90;61.20;;;;;;6221889;28;20129;-74
2021/10/21 05:51:40;;;;;;;6.60;1.63;;;20.00;61.60;;;;;;6220918;28;20080;-73
2021/10/21 05:54:41;;;;;;;2.78;1.45;;;19.90;61.60;;;;;;6222616;28;20489;-73
2021/10/21 05:57:42;;;;;;;2.83;1.75;;;19.90;61.70;;;;;;6222809;28;20099;-72
2021/10/21 06:00:44;;;;;;;4.88;2.85;;;19.90;61.90;;;;;;6223584;28;20026;-72
2021/10/21 06:03:45;;;;;;;7.20;1.73;;;19.90;62.00;;;;;;6237690;28;20052;-72
2021/10/21 06:06:46;;;;;;;4.95;1.63;;;19.90;61.90;;;;;;6221649;28;20026;-73
2021/10/21 06:09:48;;;;;;;3.53;1.95;;;19.90;62.10;;;;;;6235839;28;20049;-72
2021/10/21 06:12:50;;;;;;;3.13;2.00;;;19.80;62.10;;;;;;6222669;28;20139;-72
2021/10/21 06:15:51;;;;;;;5.18;2.20;;;19.80;62.20;;;;;;6221517;28;20038;-72
2021/10/21 06:18:52;;;;;;;8.43;2.50;;;19.70;62.80;;;;;;6222759;28;20450;-73
2021/10/21 06:22:05;;;;;;;6.07;2.20;;;19.60;63.20;;;;;;6222430;28;20100;-73
2021/10/21 06:25:07;;;;;;;9.68;2.42;;;19.40;63.40;;;;;;6220690;28;20414;-73
2021/10/21 06:28:08;;;;;;;5.70;2.25;;;19.50;64.00;;;;;;6220067;28;20041;-72
2021/10/21 06:31:12;;;;;;;9.80;2.80;;;19.40;64.20;;;;;;6223715;28;20045;-75
2021/10/21 06:34:13;;;;;;;5.95;2.22;;;19.30;64.60;;;;;;6205442;28;20040;-73
2021/10/21 06:37:14;;;;;;;3.65;2.17;;;19.30;64.70;;;;;;6221286;28;20030;-73
2021/10/21 06:40:16;;;;;;;6.25;2.40;;;19.20;64.90;;;;;;6220583;28;20041;-73
2021/10/21 06:43:17;;;;;;;8.00;2.47;;;19.20;65.10;;;;;;6220672;28;20065;-73
2021/10/21 06:46:18;;;;;;;4.68;2.22;;;19.20;65.30;;;;;;6224230;28;20042;-73
2021/10/21 06:49:19;;;;;;;3.75;2.10;;;19.20;65.50;;;;;;6225918;28;20053;-73
2021/10/21 06:52:20;;;;;;;2.80;1.95;;;19.10;65.60;;;;;;6226586;28;20040;-73
2021/10/21 06:55:22;;;;;;;4.10;1.95;;;19.10;65.80;;;;;;6226759;28;20052;-73
2021/10/21 06:58:23;;;;;;;6.57;2.20;;;19.10;65.70;;;;;;6209052;28;20046;-73
2021/10/21 07:01:24;;;;;;;3.75;2.00;;;19.10;65.60;;;;;;6229099;28;20060;-73
2021/10/21 07:04:25;;;;;;;3.85;2.20;;;19.20;65.60;;;;;;6225173;28;20116;-74
2021/10/21 07:07:26;;;;;;;6.65;2.15;;;19.20;65.40;;;;;;6224857;28;20034;-72
2021/10/21 07:10:27;;;;;;;8.48;2.30;;;19.20;65.20;;;;;;6219066;28;20095;-77
2021/10/21 07:13:29;;;;;;;8.00;2.20;;;19.30;65.20;;;;;;6225446;28;20125;-73
2021/10/21 07:16:29;;;;;;;9.13;2.45;;;19.30;65.30;;;;;;6224741;28;20116;-73
2021/10/21 07:19:30;;;;;;;2.47;1.90;;;19.30;65.20;;;;;;6226166;28;20037;-74
2021/10/21 07:22:31;;;;;;;7.68;2.25;;;19.30;65.00;;;;;;6226226;28;20038;-73
2021/10/21 07:25:32;;;;;;;3.65;2.08;;;19.40;65.10;;;;;;6225855;28;20125;-73
2021/10/21 07:28:33;;;;;;;4.75;2.00;;;19.40;65.00;;;;;;6225134;28;20046;-73
2021/10/21 07:31:34;;;;;;;5.05;2.40;;;19.50;64.90;;;;;;6208632;28;20037;-73
2021/10/21 07:34:36;;;;;;;4.00;1.65;;;19.50;64.70;;;;;;6206370;28;20061;-75
2021/10/21 07:37:37;;;;;;;3.97;2.30;;;19.50;64.70;;;;;;6224961;28;20478;-73
2021/10/21 07:40:38;;;;;;;9.57;2.30;;;19.50;64.60;;;;;;6225382;28;20046;-72
2021/10/21 07:43:39;;;;;;;4.28;2.58;;;19.50;64.50;;;;;;6224118;28;20046;-73
2021/10/21 07:46:42;;;;;;;3.10;1.95;;;19.50;64.50;;;;;;6224608;28;20348;-73
2021/10/21 07:49:44;;;;;;;7.45;2.60;;;19.60;64.40;;;;;;6217950;28;20041;-73
2021/10/21 07:52:46;;;;;;;4.25;2.20;;;19.70;64.20;;;;;;6223161;28;20034;-73
2021/10/21 07:55:47;;;;;;;5.00;2.17;;;19.70;64.10;;;;;;6222666;28;20048;-73
2021/10/21 07:58:48;;;;;;;4.68;2.15;;;19.80;63.90;;;;;;6222174;28;20045;-73
2021/10/21 08:01:49;;;;;;;6.43;2.17;;;19.90;63.60;;;;;;6225272;28;20041;-73
2021/10/21 08:04:50;;;;;;;3.50;2.20;;;20.00;64.20;;;;;;6224203;28;20088;-74
2021/10/21 08:07:51;;;;;;;4.63;2.00;;;20.00;63.10;;;;;;6218645;28;20041;-73
2021/10/21 08:10:52;;;;;;;3.55;1.67;;;20.00;63.00;;;;;;6240243;28;20459;-73
2021/10/21 08:13:53;;;;;;;6.05;1.95;;;20.00;62.90;;;;;;6223117;28;20096;-72
2021/10/21 08:16:57;;;;;;;2.97;1.80;;;20.10;63.00;;;;;;6232372;28;20046;-73
2021/10/21 08:19:58;;;;;;;3.35;1.42;;;20.20;62.90;;;;;;6238461;28;20145;-73
2021/10/21 08:23:00;;;;;;;5.80;1.65;;;20.30;62.40;;;;;;6224633;28;20467;-72
2021/10/21 08:26:01;;;;;;;12.43;1.80;;;20.50;61.30;;;;;;6224785;28;20057;-72
2021/10/21 08:29:02;;;;;;;6.25;1.60;;;20.60;59.10;;;;;;6223122;28;20471;-72
2021/10/21 08:32:06;;;;;;;10.65;0.90;;;20.60;58.10;;;;;;6228256;28;20034;-72
2021/10/21 08:35:14;;;;;;;11.75;1.20;;;20.70;56.80;;;;;;6231289;28;20041;-72
2021/10/21 08:38:15;;;;;;;8.18;1.30;;;20.90;54.80;;;;;;6223618;28;20458;-72
2021/10/21 08:41:17;;;;;;;14.13;1.42;;;21.00;52.90;;;;;;6239309;28;20087;-73
2021/10/21 08:44:19;;;;;;;6.95;1.20;;;21.10;51.30;;;;;;6222752;28;20038;-73
2021/10/21 08:47:21;;;;;;;10.25;1.65;;;21.30;50.30;;;;;;6222821;28;20046;-73
2021/10/21 08:50:24;;;;;;;17.10;1.63;;;21.30;48.80;;;;;;6223054;28;20116;-74
2021/10/21 08:53:25;;;;;;;5.53;1.20;;;21.40;48.30;;;;;;6223578;28;20112;-72
2021/10/21 08:56:27;;;;;;;10.23;1.20;;;21.50;47.80;;;;;;6223550;28;20062;-71
2021/10/21 08:59:28;;;;;;;14.13;1.95;;;21.50;47.30;;;;;;6213745;28;20106;-72
2021/10/21 09:05:53;;;;;;;6.85;1.73;;;21.60;46.80;;;;;;6222970;28;20034;-73
2021/10/21 09:08:54;;;;;;;5.60;1.60;;;21.50;46.80;;;;;;6221563;28;20038;-73
2021/10/21 09:12:08;;;;;;;6.88;0.95;;;21.60;47.00;;;;;;6223336;28;20088;-72
2021/10/21 09:15:12;;;;;;;5.80;1.42;;;21.60;47.10;;;;;;6223204;28;20034;-73
2021/10/21 09:18:14;;;;;;;7.70;1.50;;;21.70;46.80;;;;;;6221480;28;20053;-72
2021/10/21 09:21:37;;;;;;;6.10;1.42;;;21.70;46.60;;;;;;6221512;28;20168;-73
2021/10/21 09:24:41;;;;;;;7.28;1.55;;;21.60;46.90;;;;;;6219667;28;20038;-74
2021/10/21 09:27:45;;;;;;;4.28;1.48;;;21.60;47.00;;;;;;6218818;28;20376;-71
2021/10/21 09:30:56;;;;;;;11.98;1.38;;;21.50;47.10;;;;;;6214090;28;20044;-72
2021/10/21 09:33:57;;;;;;;5.03;1.27;;;21.40;47.20;;;;;;6223397;28;20359;-72
2021/10/21 09:37:07;;;;;;;8.32;1.50;;;21.30;47.20;;;;;;6236961;28;20053;-73
2021/10/21 09:40:11;;;;;;;7.10;1.40;;;21.20;47.40;;;;;;6221558;28;20105;-73
2021/10/21 09:43:15;;;;;;;5.35;1.13;;;21.20;47.60;;;;;;6234774;28;20069;-73
2021/10/21 09:46:41;;;;;;;6.72;1.40;;;21.20;47.50;;;;;;6237359;28;20061;-73
2021/10/21 09:49:44;;;;;;;9.75;1.63;;;21.20;47.50;;;;;;6220011;28;21134;-74
2021/10/21 09:53:19;;;;;;;8.65;1.65;;;21.30;47.20;;;;;;6221295;28;20080;-73
2021/10/21 09:56:20;;;;;;;4.15;1.08;;;21.30;47.40;;;;;;6217310;28;20455;-73
2021/10/21 09:59:37;;;;;;;3.17;1.20;;;21.30;47.30;;;;;;6218725;28;20061;-73
2021/10/21 10:02:39;;;;;;;3.53;1.30;;;21.30;47.50;;;;;;6218954;28;20053;-72
2021/10/21 10:05:48;;;;;;;9.93;1.20;;;21.50;47.40;;;;;;6220224;28;20042;-75
2021/10/21 10:08:49;;;;;;;9.25;1.38;;;21.70;47.00;;;;;;6200821;28;20088;-74
2021/10/21 10:11:50;;;;;;;3.88;1.10;;;21.90;46.60;;;;;;6217155;28;20072;-73
2021/10/21 10:14:51;;;;;;;7.35;1.67;;;22.20;45.80;;;;;;6218152;28;20034;-75
2021/10/21 10:17:52;;;;;;;6.75;1.25;;;22.30;45.40;;;;;;6218000;28;20034;-73
2021/10/21 10:21:12;;;;;;;14.13;1.75;;;22.50;45.00;;;;;;6222899;28;20034;-75
2021/10/21 10:24:14;;;;;;;5.53;1.52;;;22.70;44.60;;;;;;6223474;28;20297;-76
2021/10/21 10:27:21;;;;;;;4.65;1.10;;;22.80;44.20;;;;;;6239446;28;20030;-76
2021/10/21 10:30:48;;;;;;;5.13;1.07;;;23.00;44.10;;;;;;6224808;28;20030;-75
2021/10/21 10:33:50;;;;;;;2.38;1.00;;;23.10;44.00;;;;;;6229767;28;20064;-73
2021/10/21 10:36:50;;;;;;;5.00;1.98;;;23.30;42.80;;;;;;6225466;28;20038;-75
2021/10/21 10:39:53;;;;;;;6.28;1.63;;;23.40;42.40;;;;;;6224072;28;20367;-75
2021/10/21 10:42:55;;;;;;;9.52;1.35;;;23.50;42.00;;;;;;6225503;28;20041;-74
2021/10/21 10:45:56;;;;;;;4.85;0.85;;;23.50;41.80;;;;;;6226051;28;20044;-73
2021/10/21 10:48:57;;;;;;;6.55;1.10;;;23.50;41.60;;;;;;6225365;28;20873;-74
2021/10/21 10:52:41;;;;;;;2.65;1.20;;;23.60;41.50;;;;;;6225587;28;20116;-75
2021/10/21 10:55:47;;;;;;;5.28;1.20;;;23.80;41.10;;;;;;6222210;28;20332;-74
2021/10/21 10:59:15;;;;;;;4.40;1.20;;;24.00;40.70;;;;;;6224008;28;20111;-73
2021/10/21 11:02:22;;;;;;;3.42;0.82;;;24.20;40.40;;;;;;6224447;28;20092;-73
2021/10/21 11:05:46;;;;;;;5.88;1.33;;;24.60;39.80;;;;;;6221530;28;20469;-75
2021/10/21 11:08:47;;;;;;;4.93;1.23;;;24.90;39.00;;;;;;6220494;28;20041;-73
2021/10/21 11:12:04;;;;;;;4.00;1.10;;;25.20;37.90;;;;;;6220765;28;20135;-72
2021/10/21 11:15:34;;;;;;;4.43;1.20;;;25.40;37.60;;;;;;6221220;28;20038;-72
2021/10/21 11:18:38;;;;;;;3.85;0.93;;;25.70;36.40;;;;;;6221333;28;20474;-73
2021/10/21 11:22:05;;;;;;;6.22;0.95;;;26.00;34.20;;;;;;6223795;28;20531;-73
2021/10/21 11:25:08;;;;;;;4.03;1.13;;;26.20;34.10;;;;;;6219041;28;20129;-73
2021/10/21 11:28:10;;;;;;;4.93;1.30;;;26.60;33.70;;;;;;6221295;28;20034;-72
2021/10/21 11:31:12;;;;;;;10.75;1.38;;;26.90;33.40;;;;;;6224452;28;20038;-73
2021/10/21 11:34:14;;;;;;;5.65;1.42;;;27.20;32.10;;;;;;6222085;28;20405;-73
2021/10/21 11:37:22;;;;;;;4.00;0.90;;;27.40;32.00;;;;;;6226711;28;20145;-73
2021/10/21 11:40:39;;;;;;;2.17;0.93;;;27.90;31.10;;;;;;6221540;28;20056;-73
2021/10/21 11:43:41;;;;;;;5.80;1.27;;;28.20;30.20;;;;;;6233464;28;20051;-74
2021/10/21 11:46:42;;;;;;;8.93;1.50;;;28.40;29.90;;;;;;6204093;28;20125;-75
2021/10/21 11:49:43;;;;;;;2.80;1.17;;;28.70;30.10;;;;;;6205324;28;20042;-74
2021/10/21 11:52:44;;;;;;;3.72;1.10;;;29.00;29.50;;;;;;6219984;28;20045;-74
2021/10/21 11:55:48;;;;;;;5.45;0.93;;;29.30;29.20;;;;;;6220004;28;20509;-73
2021/10/21 11:58:49;;;;;;;2.50;1.35;;;29.60;28.50;;;;;;6214679;28;20053;-73
2021/10/21 12:01:51;;;;;;;3.88;1.00;;;29.90;28.20;;;;;;6216868;28;20033;-74
2021/10/21 12:04:54;;;;;;;11.02;1.38;;;30.00;27.90;;;;;;6217762;28;20106;-74
2021/10/21 12:07:57;;;;;;;2.67;0.82;;;30.30;27.70;;;;;;6221650;28;20030;-74
2021/10/21 12:11:00;;;;;;;6.13;1.20;;;30.50;27.30;;;;;;6227433;28;20034;-73
2021/10/21 12:14:04;;;;;;;3.78;1.05;;;30.60;26.60;;;;;;6220449;28;20037;-73
2021/10/21 12:17:05;;;;;;;8.45;1.45;;;30.50;26.20;;;;;;6222561;28;20088;-73
2021/10/21 12:20:07;;;;;;;5.95;1.10;;;30.40;26.30;;;;;;6220749;28;20038;-74
2021/10/21 12:23:16;;;;;;;8.75;1.38;;;30.40;26.30;;;;;;6221043;28;20049;-74
2021/10/21 12:26:30;;;;;;;3.10;0.90;;;30.40;26.30;;;;;;6238106;28;20034;-74
2021/10/21 12:29:45;;;;;;;2.13;0.80;;;30.20;26.50;;;;;;6220818;28;20038;-73
2021/10/21 12:32:46;;;;;;;11.07;1.48;;;29.50;26.90;;;;;;6221291;28;20042;-72
2021/10/21 12:36:04;;;;;;;3.45;0.80;;;28.50;27.60;;;;;;6222794;28;20034;-73
2021/10/21 12:39:10;;;;;;;4.47;1.95;;;27.60;28.30;;;;;;6229979;28;20049;-73
2021/10/21 12:42:23;;;;;;;5.45;0.90;;;26.80;29.00;;;;;;6220433;28;20057;-73
2021/10/21 12:45:25;;;;;;;6.75;1.20;;;26.20;29.70;;;;;;6222259;28;20033;-73
2021/10/21 12:48:29;;;;;;;7.65;1.40;;;25.80;30.30;;;;;;6207534;28;20127;-74
2021/10/21 12:51:32;;;;;;;7.20;0.88;;;25.30;30.90;;;;;;6240392;28;20077;-73
2021/10/21 12:54:35;;;;;;;2.17;0.93;;;25.00;31.40;;;;;;6204483;28;20061;-73
2021/10/21 12:57:54;;;;;;;2.85;0.73;;;24.70;31.90;;;;;;6205256;28;20038;-72
2021/10/21 13:00:58;;;;;;;6.40;1.08;;;24.50;32.30;;;;;;6218448;28;20036;-74
2021/10/21 13:03:59;;;;;;;2.15;0.82;;;24.30;32.30;;;;;;6218657;28;20034;-74
2021/10/21 13:07:00;;;;;;;4.82;0.85;;;24.20;32.70;;;;;;6209927;28;20084;-71
2021/10/21 13:10:04;;;;;;;3.05;0.90;;;24.10;33.00;;;;;;6217411;28;20185;-73
2021/10/21 13:13:06;;;;;;;2.05;0.93;;;23.90;33.30;;;;;;6219786;28;20101;-72
2021/10/21 13:16:09;;;;;;;1.38;0.50;;;23.80;33.30;;;;;;6202291;28;20034;-74
2021/10/21 13:19:10;;;;;;;4.85;1.10;;;23.70;33.40;;;;;;6220917;28;20038;-73
2021/10/21 13:22:12;;;;;;;4.63;1.02;;;23.70;33.50;;;;;;6235925;28;20113;-73
2021/10/21 13:25:13;;;;;;;1.23;0.68;;;23.60;33.70;;;;;;6220602;28;20037;-73
2021/10/21 13:28:16;;;;;;;4.72;0.70;;;23.50;33.70;;;;;;6220606;28;20034;-73
2021/10/21 13:31:17;;;;;;;2.53;0.68;;;23.50;33.80;;;;;;6224371;28;20096;-72
2021/10/21 13:34:18;;;;;;;3.35;0.73;;;23.40;33.80;;;;;;6222030;28;20359;-73
2021/10/21 13:37:19;;;;;;;10.88;1.08;;;23.30;33.80;;;;;;6221875;28;20030;-72
2021/10/21 13:40:21;;;;;;;4.30;0.80;;;23.40;34.00;;;;;;6219843;28;20053;-72
2021/10/21 13:43:22;;;;;;;7.03;1.67;;;23.20;34.10;;;;;;6219033;28;20049;-72
2021/10/21 13:46:23;;;;;;;3.10;1.00;;;23.20;34.40;;;;;;6221821;28;20475;-73
2021/10/21 13:49:24;;;;;;;2.40;0.77;;;23.20;34.50;;;;;;6220576;28;20034;-72
2021/10/21 13:52:25;;;;;;;6.25;0.98;;;23.20;34.50;;;;;;6198439;28;20050;-73
2021/10/21 13:55:26;;;;;;;5.07;0.73;;;23.20;34.50;;;;;;6220153;28;20042;-73
2021/10/21 13:58:27;;;;;;;2.78;0.70;;;23.10;34.40;;;;;;6219280;28;20405;-73
2021/10/21 14:01:28;;;;;;;5.60;0.90;;;23.10;34.70;;;;;;6219698;28;20105;-73
2021/10/21 14:04:29;;;;;;;3.03;0.80;;;23.10;34.80;;;;;;6219010;28;20521;-73
2021/10/21 14:07:30;;;;;;;3.50;0.70;;;23.10;34.80;;;;;;6220219;28;20042;-73
2021/10/21 14:10:30;;;;;;;1.30;0.68;;;23.00;34.90;;;;;;6220407;28;20041;-73
2021/10/21 14:13:31;;;;;;;6.28;1.00;;;23.00;34.90;;;;;;6226407;28;20052;-74
2021/10/21 14:16:34;;;;;;;3.40;0.88;;;23.00;35.00;;;;;;6219214;28;20041;-73
2021/10/21 14:19:35;;;;;;;3.83;0.93;;;23.00;35.00;;;;;;6221168;28;20045;-72
2021/10/21 14:22:36;;;;;;;11.77;1.48;;;23.00;35.10;;;;;;6219609;28;20053;-73
2021/10/21 14:25:39;;;;;;;5.25;0.82;;;22.90;35.00;;;;;;6221082;28;20117;-73
2021/10/21 14:28:41;;;;;;;4.85;1.08;;;22.90;35.20;;;;;;6219801;28;20098;-73
2021/10/21 14:31:41;;;;;;;4.28;0.88;;;22.90;35.20;;;;;;6222185;28;20053;-73
2021/10/21 14:34:42;;;;;;;5.22;0.73;;;22.90;35.10;;;;;;6219743;28;20038;-73
2021/10/21 14:37:46;;;;;;;3.20;0.68;;;22.90;34.90;;;;;;6217865;28;20038;-73
2021/10/21 14:40:47;;;;;;;3.00;0.80;;;22.80;34.90;;;;;;6219374;28;20030;-73
2021/10/21 14:43:49;;;;;;;3.75;0.85;;;22.80;34.90;;;;;;6235404;28;20296;-73
2021/10/21 14:46:50;;;;;;;5.35;0.88;;;22.70;34.90;;;;;;6218287;28;20315;-73
2021/10/21 14:49:51;;;;;;;6.22;0.82;;;22.70;34.80;;;;;;6219922;28;20064;-73
2021/10/21 14:52:52;;;;;;;3.60;1.10;;;22.70;34.80;;;;;;6220696;28;20026;-72
2021/10/21 14:55:53;;;;;;;2.30;0.63;;;22.60;34.70;;;;;;6220047;28;20034;-73
2021/10/21 14:58:55;;;;;;;5.40;0.93;;;22.60;34.50;;;;;;6202473;28;20041;-73
2021/10/21 15:01:56;;;;;;;5.75;0.80;;;22.60;34.40;;;;;;6210496;28;20034;-73
2021/10/21 15:04:57;;;;;;;3.70;0.73;;;22.50;34.50;;;;;;6218271;28;20482;-72
2021/10/21 15:11:23;;;;;;;3.10;1.02;;;22.50;34.60;;;;;;6225605;28;20038;-72
2021/10/21 15:24:06;;;;;;;2.88;0.70;;;22.40;34.80;;;;;;6234398;28;20097;-73
2021/10/21 15:27:08;;;;;;;10.07;1.25;;;22.40;35.10;;;;;;6223943;28;20448;-73
2021/10/21 15:30:10;;;;;;;5.95;0.98;;;22.40;35.20;;;;;;6222432;28;20030;-72
2021/10/21 15:33:11;;;;;;;8.45;1.20;;;22.30;35.30;;;;;;6223599;28;20431;-72
2021/10/21 15:36:12;;;;;;;10.38;1.00;;;22.30;35.30;;;;;;6223846;28;20030;-73
2021/10/21 15:39:19;;;;;;;8.35;0.82;;;22.30;35.50;;;;;;6221890;28;20038;-73
2021/10/21 15:42:21;;;;;;;8.18;1.55;;;22.20;35.60;;;;;;6221704;28;20084;-73
2021/10/21 15:45:45;;;;;;;7.40;0.90;;;22.20;35.80;;;;;;6204670;28;20038;-73
2021/10/21 16:12:21;;;;;;;5.47;0.98;;;21.80;36.70;;;;;;6218475;28;20164;-74
2021/10/21 16:15:22;;;;;;;11.27;1.60;;;21.70;36.80;;;;;;6202406;28;20346;-73
2021/10/21 16:18:23;;;;;;;8.45;1.27;;;21.70;36.80;;;;;;6216907;28;20409;-72
2021/10/21 16:21:27;;;;;;;4.30;1.08;;;21.60;36.80;;;;;;6203371;28;20089;-72
2021/10/21 16:24:34;;;;;;;4.63;1.00;;;21.60;36.90;;;;;;6177641;28;20045;-75
2021/10/21 16:27:35;;;;;;;6.43;0.98;;;21.50;37.10;;;;;;6203014;28;20060;-73
2021/10/21 16:30:36;;;;;;;5.70;1.10;;;21.50;37.20;;;;;;6221646;28;20037;-73